Time;durP1;ratioP1;P1;durP2;ratioP2;P2;SDS_P1;SDS_P2;PMS_P1;PMS_P2;Temp;Humidity;BMP_temperature;BMP_pressure;BME280_temperature;BME280_humidity;BME280_pressure;Samples;Min_cycle;Max_cycle;Signal;HPM_P1;HPM_P2
2022/03/20 00:00:31;;;;;;;3.83;1.15;;;;;;;-142.75;100.00;79675.78;5008513;28;20053;-68
2022/03/20 00:02:57;;;;;;;3.10;1.25;;;;;;;-142.75;100.00;79675.78;5007392;28;20053;-67
2022/03/20 00:05:23;;;;;;;3.65;1.38;;;;;;;-142.75;100.00;79687.59;5010642;28;20026;-68
2022/03/20 00:07:48;;;;;;;3.80;1.30;;;;;;;-142.75;100.00;79685.63;5010870;28;20022;-67
2022/03/20 00:10:15;;;;;;;4.70;1.63;;;;;;;-142.75;100.00;79679.72;5011214;28;20109;-67
2022/03/20 00:12:40;;;;;;;3.30;1.17;;;;;;;-142.75;100.00;79677.75;5012597;28;20112;-67
2022/03/20 00:15:07;;;;;;;6.32;1.42;;;;;;;-142.75;100.00;79679.72;5011128;28;20113;-68
2022/03/20 00:17:33;;;;;;;3.17;1.40;;;;;;;-142.75;100.00;79683.66;5012579;28;20026;-67
2022/03/20 00:19:58;;;;;;;;;;;;;;;-142.75;100.00;79683.66;5012622;28;20404;-67
2022/03/20 00:22:24;;;;;;;3.03;1.37;;;;;;;-142.75;100.00;79683.66;5012148;28;19921;-70
2022/03/20 00:24:50;;;;;;;6.80;1.20;;;;;;;-142.75;100.00;79685.63;5011352;28;20045;-67
2022/03/20 00:27:16;;;;;;;2.67;1.23;;;;;;;-142.75;100.00;79689.56;5012264;28;20109;-67
2022/03/20 00:29:41;;;;;;;5.30;1.92;;;;;;;-142.75;100.00;79683.66;5011124;28;20084;-67
2022/03/20 00:32:09;;;;;;;4.93;1.38;;;;;;;-142.75;100.00;79683.66;5010735;28;20030;-67
2022/03/20 00:34:35;;;;;;;5.47;1.60;;;;;;;-142.75;100.00;79677.75;5011861;28;20057;-68
2022/03/20 00:37:01;;;;;;;4.43;1.27;;;;;;;-142.75;100.00;79677.75;5011831;28;20030;-68
2022/03/20 00:39:27;;;;;;;3.05;1.60;;;;;;;-142.75;100.00;79667.91;5010179;28;20102;-67
2022/03/20 00:41:52;;;;;;;4.20;1.47;;;;;;;-142.75;100.00;79669.88;5010521;28;20028;-67
2022/03/20 00:44:17;;;;;;;5.03;1.80;;;;;;;-142.75;100.00;79662.00;5010801;28;20311;-68
2022/03/20 00:46:43;;;;;;;4.88;1.88;;;;;;;-142.75;100.00;79665.94;5009502;28;20030;-68
2022/03/20 00:49:09;;;;;;;2.90;1.58;;;;;;;-142.75;100.00;79669.88;5010105;28;20060;-67
2022/03/20 00:51:34;;;;;;;3.22;1.55;;;;;;;-142.75;100.00;79673.81;5010744;28;20459;-69
2022/03/20 00:53:59;;;;;;;4.03;1.42;;;;;;;-142.75;100.00;79679.72;5011378;28;20030;-67
2022/03/20 00:56:25;;;;;;;3.53;1.58;;;;;;;-142.75;100.00;79695.47;5011510;28;20036;-67
2022/03/20 00:58:51;;;;;;;3.55;1.45;;;;;;;-142.75;100.00;79697.44;5011650;28;20104;-68
2022/03/20 01:01:16;;;;;;;5.07;1.70;;;;;;;-142.75;100.00;79693.50;5010216;28;20393;-68
2022/03/20 01:03:42;;;;;;;4.00;1.67;;;;;;;-142.75;100.00;79697.44;5008685;28;20550;-67
2022/03/20 01:06:08;;;;;;;4.78;1.83;;;;;;;-142.75;100.00;79693.50;5011143;28;20522;-67
2022/03/20 01:08:34;;;;;;;4.30;1.70;;;;;;;-142.75;100.00;79693.50;5011287;28;20030;-68
2022/03/20 01:11:10;;;;;;;3.73;1.63;;;;;;;-142.75;100.00;79705.34;5010206;28;20195;-68
2022/03/20 01:13:35;;;;;;;4.80;1.70;;;;;;;-142.75;100.00;79715.19;5011026;28;20017;-67
2022/03/20 01:16:01;;;;;;;6.78;2.25;;;;;;;-142.75;100.00;79705.34;5009846;28;20372;-67
2022/03/20 01:18:26;;;;;;;4.78;2.17;;;;;;;-142.75;100.00;79701.38;5009423;28;20018;-68
2022/03/20 01:20:53;;;;;;;4.07;2.03;;;;;;;-142.75;100.00;79711.25;5010322;28;20455;-68
2022/03/20 01:23:21;;;;;;;3.37;1.67;;;;;;;-142.75;100.00;79699.41;5010118;28;20032;-68
2022/03/20 01:25:50;;;;;;;4.77;2.10;;;;;;;-142.75;100.00;79701.38;5008566;28;20029;-68
2022/03/20 01:28:16;;;;;;;4.93;2.80;;;;;;;-142.75;100.00;79699.41;5007859;28;20793;-68
2022/03/20 01:30:42;;;;;;;7.03;2.53;;;;;;;-142.75;100.00;79691.53;5010138;28;20026;-67
2022/03/20 01:33:07;;;;;;;4.10;2.30;;;;;;;-142.75;100.00;79699.41;5008139;28;20049;-68
2022/03/20 01:35:35;;;;;;;4.85;2.88;;;;;;;-142.75;100.00;79701.38;5009822;28;20045;-69
2022/03/20 01:38:00;;;;;;;3.73;2.27;;;;;;;-142.75;100.00;79701.38;5010568;28;20033;-67
2022/03/20 01:40:26;;;;;;;6.75;2.85;;;;;;;-142.75;100.00;79697.44;5009721;28;20026;-68
2022/03/20 01:42:52;;;;;;;6.45;2.95;;;;;;;-142.75;100.00;79709.28;5010535;28;20427;-68
2022/03/20 01:45:22;;;;;;;8.23;3.00;;;;;;;-142.75;100.00;79695.47;5057881;22;20067;-67
2022/03/20 01:47:49;;;;;;;6.07;2.90;;;;;;;-142.75;100.00;79701.38;5050723;28;20025;-66
2022/03/20 01:50:25;;;;;;;8.67;3.10;;;;;;;-142.75;100.00;79695.47;5052438;28;20363;-66
2022/03/20 01:52:53;;;;;;;8.27;3.28;;;;;;;-142.75;100.00;79703.38;5051244;28;20044;-66
2022/03/20 01:55:21;;;;;;;5.57;3.47;;;;;;;-142.75;100.00;79709.28;5051999;28;20056;-65
2022/03/20 01:57:47;;;;;;;6.03;3.20;;;;;;;-142.75;100.00;79703.38;5051443;28;20125;-65
2022/03/20 02:00:20;;;;;;;7.47;3.70;;;;;;;-142.75;100.00;79717.16;5051896;28;20021;-66
2022/03/20 02:02:46;;;;;;;6.83;3.97;;;;;;;-142.75;100.00;79709.28;5051709;28;20086;-66
2022/03/20 02:05:11;;;;;;;;;;;;;;;-142.75;100.00;79705.34;5051568;28;20032;-65
2022/03/20 02:07:38;;;;;;;7.57;3.40;;;;;;;-142.75;100.00;79709.28;5050767;28;20003;-65
2022/03/20 02:10:04;;;;;;;6.47;3.47;;;;;;;-142.75;100.00;79705.34;5050722;28;20113;-65
2022/03/20 02:12:30;;;;;;;6.57;4.30;;;;;;;-142.75;100.00;79703.38;5050904;28;20025;-65
2022/03/20 02:14:58;;;;;;;9.32;4.43;;;;;;;-142.75;100.00;79705.34;5050885;28;20163;-65
2022/03/20 02:17:27;;;;;;;7.77;4.07;;;;;;;-142.75;100.00;79703.38;5051238;28;20494;-67
2022/03/20 02:19:52;;;;;;;10.97;4.83;;;;;;;-142.75;100.00;79705.34;5049897;28;20045;-67
2022/03/20 02:22:17;;;;;;;9.67;4.63;;;;;;;-142.75;100.00;79695.47;5039252;28;20257;-66
2022/03/20 02:24:48;;;;;;;12.03;5.27;;;;;;;-142.75;100.00;79685.63;5050276;28;20641;-67
2022/03/20 02:27:17;;;;;;;9.57;5.13;;;;;;;-142.75;100.00;79677.75;5050042;28;20017;-67
2022/03/20 02:29:47;;;;;;;8.40;4.60;;;;;;;-142.75;100.00;79689.56;5050181;28;20100;-66
2022/03/20 02:32:16;;;;;;;9.27;4.93;;;;;;;-142.75;100.00;79671.84;5050440;28;20029;-66
2022/03/20 02:34:42;;;;;;;12.23;4.97;;;;;;;-142.75;100.00;79671.84;5050363;28;20107;-67
2022/03/20 02:37:08;;;;;;;11.30;6.03;;;;;;;-142.75;100.00;79669.88;5050383;28;20072;-66
2022/03/20 02:39:35;;;;;;;10.83;5.67;;;;;;;-142.75;100.00;79665.94;5048655;28;20073;-66
2022/03/20 02:42:03;;;;;;;13.40;6.30;;;;;;;-142.75;100.00;79665.94;5050337;28;20024;-66
2022/03/20 02:44:48;;;;;;;10.13;5.97;;;;;;;-142.75;100.00;79658.06;5049772;28;20033;-66
2022/03/20 02:47:13;;;;;;;11.97;6.33;;;;;;;-142.75;100.00;79662.00;5030105;28;20056;-66
2022/03/20 02:49:39;;;;;;;12.85;6.28;;;;;;;-142.75;100.00;79658.06;5048691;28;20029;-66
2022/03/20 02:52:06;;;;;;;11.98;6.70;;;;;;;-142.75;100.00;79660.03;5050053;28;20025;-66
2022/03/20 02:54:32;;;;;;;11.37;6.57;;;;;;;-142.75;100.00;79658.06;5050271;28;20029;-66
2022/03/20 02:56:57;;;;;;;14.63;7.07;;;;;;;-142.75;100.00;79656.09;5049928;28;20036;-66
2022/03/20 02:59:23;;;;;;;15.00;6.53;;;;;;;-142.75;100.00;79650.16;5048530;28;20029;-67
2022/03/20 03:01:48;;;;;;;14.50;7.00;;;;;;;-142.75;100.00;79646.22;5050030;28;20498;-66
2022/03/20 03:04:13;;;;;;;13.07;6.53;;;;;;;-142.75;100.00;79634.41;5049627;28;20329;-66
2022/03/20 03:06:38;;;;;;;14.13;7.40;;;;;;;-142.75;100.00;79636.38;5049797;28;20033;-66
2022/03/20 03:11:48;;;;;;;14.33;7.60;;;;;;;-142.75;100.00;79644.25;5049113;28;20814;-66
2022/03/20 03:16:57;;;;;;;15.43;7.50;;;;;;;-142.75;100.00;79630.47;5049591;28;20036;-67
2022/03/20 03:19:23;;;;;;;11.27;7.67;;;;;;;-142.75;100.00;79640.31;5049344;28;20411;-67
2022/03/20 03:21:48;;;;;;;14.15;7.25;;;;;;;-142.75;100.00;79646.22;5049554;28;20279;-66
2022/03/20 03:24:14;;;;;;;11.30;6.20;;;;;;;-142.75;100.00;79644.25;5049966;28;20136;-66
2022/03/20 03:26:39;;;;;;;12.75;7.45;;;;;;;-142.75;100.00;79648.19;5049273;28;20475;-66
2022/03/20 03:29:05;;;;;;;12.43;6.15;;;;;;;-142.75;100.00;79644.25;5049297;28;20406;-66
2022/03/20 03:31:31;;;;;;;13.95;6.13;;;;;;;-142.75;100.00;79646.22;5049736;28;20021;-66
2022/03/20 03:36:40;;;;;;;12.33;6.20;;;;;;;-142.75;100.00;79654.13;5039449;28;20040;-66
2022/03/20 03:39:07;;;;;;;14.18;6.90;;;;;;;-142.75;100.00;79652.13;5047275;28;20040;-66
2022/03/20 03:41:32;;;;;;;12.13;6.17;;;;;;;-142.75;100.00;79652.13;5049296;28;20078;-67
2022/03/20 03:43:58;;;;;;;13.75;6.13;;;;;;;-142.75;100.00;79648.19;5048936;28;20021;-66
2022/03/20 03:46:23;;;;;;;17.30;6.95;;;;;;;-142.75;100.00;79652.13;5049391;28;20033;-65
2022/03/20 03:48:48;;;;;;;11.68;6.20;;;;;;;-142.75;100.00;79640.31;5048980;28;20538;-67
2022/03/20 03:51:13;;;;;;;11.37;6.97;;;;;;;-142.75;100.00;79650.16;5049179;28;20032;-67
2022/03/20 03:53:39;;;;;;;11.57;5.47;;;;;;;-142.75;100.00;79654.13;5049561;28;20271;-66
2022/03/20 03:56:04;;;;;;;10.98;6.00;;;;;;;-142.75;100.00;79658.06;5049133;28;20033;-66
2022/03/20 03:58:29;;;;;;;13.23;6.15;;;;;;;-142.75;100.00;79660.03;5048867;28;20017;-67
2022/03/20 04:00:55;;;;;;;8.80;5.60;;;;;;;-142.75;100.00;79658.06;5049497;28;20033;-67
2022/03/20 04:03:20;;;;;;;14.33;6.27;;;;;;;-142.75;100.00;79640.31;5049034;28;20056;-67
2022/03/20 04:05:45;;;;;;;9.77;5.10;;;;;;;-142.75;100.00;79640.31;5036001;28;20849;-67
2022/03/20 04:08:11;;;;;;;14.05;5.82;;;;;;;-142.75;100.00;79638.34;5047993;28;20017;-67
2022/03/20 04:10:36;;;;;;;11.63;6.32;;;;;;;-142.75;100.00;79636.38;5049777;28;20021;-66
2022/03/20 04:13:01;;;;;;;11.15;5.90;;;;;;;-142.75;100.00;79634.41;5048897;28;20024;-66
2022/03/20 04:15:27;;;;;;;13.85;6.07;;;;;;;-142.75;100.00;79632.44;5049063;28;20021;-66
2022/03/20 04:17:52;;;;;;;10.45;6.15;;;;;;;-142.75;100.00;79628.50;5048734;28;20107;-66
2022/03/20 04:20:19;;;;;;;13.00;5.85;;;;;;;-142.75;100.00;79634.41;5048819;28;20112;-66
2022/03/20 04:23:42;;;;;;;14.90;6.60;;;;;;;-142.75;100.00;79630.47;5048734;28;20398;-66
2022/03/20 04:25:30;;;;;;;14.33;6.30;;;;;;;-142.75;100.00;79648.19;5049123;28;20041;-66
2022/03/20 04:27:56;;;;;;;10.27;5.60;;;;;;;-142.75;100.00;79638.34;5048614;28;20474;-66
2022/03/20 04:30:26;;;;;;;13.67;6.50;;;;;;;-142.75;100.00;79642.28;5049032;28;20021;-66
2022/03/20 04:32:55;;;;;;;12.33;5.80;;;;;;;-142.75;100.00;79650.16;5048776;28;20116;-66
2022/03/20 04:35:23;;;;;;;13.40;6.77;;;;;;;-142.75;100.00;79644.25;5048783;28;20402;-66
2022/03/20 04:37:49;;;;;;;12.57;6.30;;;;;;;-142.75;100.00;79640.31;5048603;28;20071;-66
2022/03/20 04:40:14;;;;;;;14.93;6.70;;;;;;;-142.75;100.00;79642.28;5048601;28;20024;-66
2022/03/20 04:42:39;;;;;;;14.30;6.93;;;;;;;-142.75;100.00;79632.44;5048775;28;20032;-67
2022/03/20 04:45:05;;;;;;;13.70;6.53;;;;;;;-142.75;100.00;79642.28;5048615;28;20083;-66
2022/03/20 04:58:29;;;;;;;11.97;5.93;;;;;;;-142.75;100.00;79644.25;5052048;28;20031;-66
2022/03/20 05:00:55;;;;;;;14.00;7.07;;;;;;;-142.75;100.00;79640.31;5052522;28;20031;-66
2022/03/20 05:03:21;;;;;;;13.75;6.32;;;;;;;-142.75;100.00;79646.22;5052072;28;20441;-66
2022/03/20 05:05:47;;;;;;;12.77;6.93;;;;;;;-142.75;100.00;79642.28;5050757;28;20016;-66
2022/03/20 05:08:12;;;;;;;13.20;6.93;;;;;;;-142.75;100.00;79634.41;5051674;28;20021;-66
2022/03/20 05:13:21;;;;;;;12.40;6.30;;;;;;;-142.75;100.00;79612.75;5052071;28;20106;-66
2022/03/20 05:15:46;;;;;;;11.55;6.63;;;;;;;-142.75;100.00;79614.72;5051891;28;20437;-67
2022/03/20 05:18:12;;;;;;;13.75;6.93;;;;;;;-142.75;100.00;79612.75;5051613;28;20449;-66
2022/03/20 05:20:38;;;;;;;12.98;7.03;;;;;;;-142.75;100.00;79614.72;5051810;28;20067;-66
2022/03/20 05:23:03;;;;;;;12.05;7.00;;;;;;;-142.75;100.00;79612.75;5051645;28;20023;-66
2022/03/20 05:25:28;;;;;;;13.25;7.30;;;;;;;-142.75;100.00;79610.78;5052233;28;20040;-66
2022/03/20 05:27:55;;;;;;;16.17;7.40;;;;;;;-142.75;100.00;79616.69;5051366;28;20021;-66
2022/03/20 05:30:21;;;;;;;12.73;6.47;;;;;;;-142.75;100.00;79612.75;5051905;28;20028;-66
2022/03/20 05:32:47;;;;;;;12.55;6.15;;;;;;;-142.75;100.00;79610.78;5051610;28;20375;-66
2022/03/20 05:35:13;;;;;;;13.83;6.37;;;;;;;-142.75;100.00;79606.84;5051377;28;20021;-67
2022/03/20 05:37:39;;;;;;;14.75;7.13;;;;;;;-142.75;100.00;79608.81;5051447;28;20033;-66
2022/03/20 05:40:05;;;;;;;13.20;7.25;;;;;;;-142.75;100.00;79614.72;5031387;28;20104;-66
2022/03/20 05:42:30;;;;;;;15.33;7.33;;;;;;;-142.75;100.00;79614.72;5031570;28;20056;-66
2022/03/20 05:44:56;;;;;;;13.27;7.28;;;;;;;-142.75;100.00;79612.75;5050616;28;20052;-66
2022/03/20 05:47:22;;;;;;;17.45;7.28;;;;;;;-142.75;100.00;79612.75;5051187;28;20471;-66
2022/03/20 05:49:47;;;;;;;15.60;7.10;;;;;;;-142.75;100.00;79600.91;5049643;28;20028;-66
2022/03/20 05:52:16;;;;;;;13.00;7.10;;;;;;;-142.75;100.00;79587.13;5051313;28;20027;-66
2022/03/20 05:54:41;;;;;;;13.03;7.07;;;;;;;-142.75;100.00;79589.09;5051361;28;20087;-67
2022/03/20 05:59:53;;;;;;;14.93;7.10;;;;;;;-142.75;100.00;79583.19;5050188;28;20516;-66
2022/03/20 06:02:20;;;;;;;16.13;8.00;;;;;;;-142.75;100.00;79575.31;5050126;28;20501;-67
2022/03/20 06:04:45;;;;;;;12.68;7.38;;;;;;;-142.75;100.00;79567.44;5051131;28;20028;-67
2022/03/20 06:07:10;;;;;;;14.95;6.63;;;;;;;-142.75;100.00;79565.47;5049711;28;20021;-67
2022/03/20 06:09:36;;;;;;;15.68;8.68;;;;;;;-142.75;100.00;79567.44;5050556;28;20526;-67
2022/03/20 06:12:02;;;;;;;17.48;8.27;;;;;;;-142.75;100.00;79557.59;5050701;28;20423;-66
2022/03/20 06:14:27;;;;;;;13.98;8.00;;;;;;;-142.75;100.00;79557.59;5050792;28;20029;-66
2022/03/20 06:16:53;;;;;;;12.60;7.72;;;;;;;-142.75;100.00;79565.47;5050668;28;20017;-66
2022/03/20 06:19:18;;;;;;;16.23;7.65;;;;;;;-142.75;100.00;79555.63;5050322;28;20027;-66
2022/03/20 06:21:44;;;;;;;14.90;8.57;;;;;;;-142.75;100.00;79549.69;5039893;28;20025;-67
2022/03/20 06:24:10;;;;;;;15.70;8.48;;;;;;;-142.75;100.00;79547.72;5050338;28;20024;-67
2022/03/20 06:26:37;;;;;;;15.18;8.07;;;;;;;-142.75;100.00;79535.91;5050381;28;20479;-66
2022/03/20 06:29:05;;;;;;;21.67;8.27;;;;;;;-142.75;100.00;79531.97;5050310;28;20024;-67
2022/03/20 06:31:31;;;;;;;16.27;8.17;;;;;;;-142.75;100.00;79522.13;5050582;28;20021;-66
2022/03/20 06:33:57;;;;;;;12.37;7.53;;;;;;;-142.75;100.00;79500.47;5031842;28;20025;-66
2022/03/20 06:36:23;;;;;;;13.27;7.40;;;;;;;-142.75;100.00;79486.66;5049558;28;20044;-66
2022/03/20 06:38:48;;;;;;;14.88;7.55;;;;;;;-142.75;100.00;79455.16;5050113;28;20486;-67
2022/03/20 06:41:14;;;;;;;16.47;8.37;;;;;;;-142.75;100.00;79425.59;5050078;28;20025;-66
2022/03/20 06:43:39;;;;;;;14.85;8.32;;;;;;;-142.75;100.00;79413.78;5050375;28;20402;-66
2022/03/20 06:46:06;;;;;;;15.83;7.87;;;;;;;-142.75;100.00;79396.06;5050079;28;20020;-66
2022/03/20 06:48:31;;;;;;;15.17;8.13;;;;;;;-142.75;100.00;79372.41;5049697;28;20482;-67
2022/03/20 06:50:57;;;;;;;17.05;8.82;;;;;;;-142.75;100.00;79372.41;5048845;28;20025;-67
2022/03/20 06:53:22;;;;;;;20.10;8.63;;;;;;;-142.75;100.00;79346.81;5049942;28;20021;-67
2022/03/20 06:55:48;;;;;;;11.53;7.77;;;;;;;-142.75;100.00;79329.06;5050471;28;20025;-67
2022/03/20 06:58:14;;;;;;;16.47;8.53;;;;;;;-142.75;100.00;79311.34;5049516;28;20475;-67
2022/03/20 07:00:40;;;;;;;17.05;8.65;;;;;;;-142.75;100.00;79309.38;5050175;28;20040;-67
2022/03/20 07:03:07;;;;;;;19.27;9.25;;;;;;;-142.75;100.00;79297.56;5049965;28;20560;-67
2022/03/20 07:05:33;;;;;;;15.90;9.20;;;;;;;-142.75;100.00;79287.72;5048426;28;20450;-66
2022/03/20 07:07:59;;;;;;;;;;;;;;;-142.75;100.00;79283.78;5050134;28;20067;-65
2022/03/20 07:10:25;;;;;;;13.70;7.93;;;;;;;-142.75;100.00;79268.00;5049836;28;20345;-66
2022/03/20 07:12:51;;;;;;;16.23;8.43;;;;;;;-142.75;100.00;79266.03;5049582;28;20082;-66
2022/03/20 07:15:19;;;;;;;16.88;8.18;;;;;;;-142.75;100.00;79250.28;5044926;28;20029;-66
2022/03/20 07:17:47;;;;;;;17.90;8.70;;;;;;;-142.75;100.00;79236.50;5043741;28;20062;-66
2022/03/20 07:20:13;;;;;;;17.00;9.27;;;;;;;-142.75;100.00;79212.84;5036852;28;20025;-66
2022/03/20 07:22:39;;;;;;;21.10;10.20;;;;;;;-142.75;100.00;79197.09;5048769;28;20052;-67
2022/03/20 07:30:33;;;;;;;17.10;9.23;;;;;;;-142.75;100.00;79102.56;5050007;28;20039;-67
2022/03/20 07:32:58;;;;;;;18.03;9.47;;;;;;;-142.75;100.00;79098.63;5038834;28;20029;-66
2022/03/20 07:35:24;;;;;;;19.10;9.40;;;;;;;-142.75;100.00;79118.31;5048837;28;20661;-66
2022/03/20 07:37:50;;;;;;;18.13;9.60;;;;;;;-142.75;100.00;79086.78;5049018;28;20278;-66
2022/03/20 07:40:16;;;;;;;19.65;9.75;;;;;;;-142.75;100.00;79114.38;5049281;28;20074;-66
2022/03/20 07:42:41;;;;;;;18.58;9.07;;;;;;;-142.75;100.00;79100.59;5049324;28;20116;-66
2022/03/20 07:45:07;;;;;;;15.70;9.47;;;;;;;-142.75;100.00;79071.03;5062719;22;20038;-68
2022/03/20 07:47:33;;;;;;;17.27;9.55;;;;;;;-142.75;100.00;79041.50;5025469;28;20017;-67
2022/03/20 07:49:59;;;;;;;18.02;9.45;;;;;;;-142.75;100.00;79027.69;5026960;28;20029;-67
2022/03/20 07:52:24;;;;;;;20.83;10.60;;;;;;;-142.75;100.00;79043.47;5028020;28;20030;-67
2022/03/20 07:54:50;;;;;;;17.77;9.88;;;;;;;-142.75;100.00;79035.59;5029651;28;20518;-67
2022/03/20 07:57:16;;;;;;;17.05;9.63;;;;;;;-142.75;100.00;79004.06;5029283;28;20018;-67
2022/03/20 07:59:44;;;;;;;19.23;9.63;;;;;;;-142.75;100.00;79006.03;5028962;28;20033;-67
2022/03/20 08:02:10;;;;;;;15.97;9.73;;;;;;;-142.75;100.00;79019.81;5028136;28;20029;-67
2022/03/20 08:04:36;;;;;;;19.55;9.95;;;;;;;-142.75;100.00;79071.03;5029173;28;20526;-67
2022/03/20 08:07:02;;;;;;;17.90;9.10;;;;;;;-142.75;100.00;79067.09;5029078;28;20026;-67
2022/03/20 08:09:28;;;;;;;21.10;10.20;;;;;;;-142.75;100.00;79074.97;5027689;28;20026;-67
2022/03/20 08:11:53;;;;;;;18.38;9.18;;;;;;;-142.75;100.00;79084.81;5029167;28;20025;-67
2022/03/20 08:14:19;;;;;;;18.58;10.23;;;;;;;-142.75;100.00;79086.78;5029152;28;20033;-67
2022/03/20 08:16:44;;;;;;;16.95;8.70;;;;;;;-142.75;100.00;79084.81;5029021;28;20026;-66
2022/03/20 08:19:11;;;;;;;17.17;9.27;;;;;;;-142.75;100.00;79102.56;5028896;28;20543;-67
2022/03/20 08:21:39;;;;;;;17.50;9.37;;;;;;;-142.75;100.00;79104.53;5028983;28;20029;-67
2022/03/20 08:24:05;;;;;;;16.83;9.40;;;;;;;-142.75;100.00;79100.59;5029373;28;20025;-68
2022/03/20 08:26:31;;;;;;;18.77;10.52;;;;;;;-142.75;100.00;79122.25;5031158;28;20487;-67
2022/03/20 08:28:59;;;;;;;18.10;9.80;;;;;;;-142.75;100.00;79122.25;5023201;28;20041;-67
2022/03/20 08:31:24;;;;;;;18.57;9.07;;;;;;;-142.75;100.00;79122.25;5032066;28;20017;-67
2022/03/20 08:33:49;;;;;;;19.95;9.60;;;;;;;-142.75;100.00;79122.25;5032691;28;20017;-67
2022/03/20 08:36:16;;;;;;;15.97;9.33;;;;;;;-142.75;100.00;79149.81;5032556;28;20426;-67
2022/03/20 08:38:41;;;;;;;16.67;10.10;;;;;;;-142.75;100.00;79145.88;5032634;28;20101;-66
2022/03/20 08:41:07;;;;;;;16.27;9.00;;;;;;;-142.75;100.00;79149.81;5032706;28;20345;-67
2022/03/20 08:43:33;;;;;;;17.70;10.55;;;;;;;-142.75;100.00;79126.19;5031423;28;20017;-67
2022/03/20 08:45:58;;;;;;;18.33;10.00;;;;;;;-142.75;100.00;79116.34;5032291;28;20094;-67
2022/03/20 08:48:23;;;;;;;19.15;9.32;;;;;;;-142.75;100.00;79124.22;5032161;28;20022;-67
2022/03/20 08:50:49;;;;;;;17.30;9.32;;;;;;;-142.75;100.00;79126.19;5030218;28;20819;-67
2022/03/20 08:53:18;;;;;;;19.30;10.25;;;;;;;-142.75;100.00;79126.19;5031432;28;20029;-66
2022/03/20 08:55:48;;;;;;;17.93;9.67;;;;;;;-142.75;100.00;79136.03;5031962;28;20088;-66
2022/03/20 08:58:13;;;;;;;19.47;10.43;;;;;;;-142.75;100.00;79141.94;5014042;28;20022;-66
2022/03/20 09:00:39;;;;;;;17.85;10.52;;;;;;;-142.75;100.00;79136.03;5030296;28;20083;-66
2022/03/20 09:03:05;;;;;;;18.05;9.93;;;;;;;-142.75;100.00;79147.84;5031533;28;20018;-66
2022/03/20 09:05:30;;;;;;;15.57;9.75;;;;;;;-142.75;100.00;79145.88;5030704;28;20029;-66
2022/03/20 09:07:57;;;;;;;18.15;10.43;;;;;;;-142.75;100.00;79153.75;5030995;28;20033;-66
2022/03/20 09:10:23;;;;;;;21.00;10.77;;;;;;;-142.75;100.00;79136.03;5030484;28;20083;-66
2022/03/20 09:12:49;;;;;;;19.43;9.50;;;;;;;-142.75;100.00;79138.00;5030795;28;20372;-66
2022/03/20 09:15:16;;;;;;;22.45;11.23;;;;;;;-142.75;100.00;79145.88;5025098;28;20071;-67
2022/03/20 09:20:32;;;;;;;23.10;11.10;;;;;;;-142.75;100.00;79134.06;5031029;28;20044;-67
2022/03/20 09:22:57;;;;;;;19.70;10.67;;;;;;;-142.75;100.00;79132.09;5030954;28;20029;-65
2022/03/20 09:25:24;;;;;;;24.10;13.90;;;;;;;-142.75;100.00;79145.88;5031351;28;20689;-66
2022/03/20 09:27:51;;;;;;;18.20;10.67;;;;;;;-142.75;100.00;79153.75;5030658;28;20036;-67
2022/03/20 09:30:17;;;;;;;21.10;10.93;;;;;;;-142.75;100.00;79143.91;5029901;28;20022;-67
2022/03/20 09:32:43;;;;;;;20.90;11.13;;;;;;;-142.75;100.00;79130.13;5029524;28;20399;-66
2022/03/20 09:35:09;;;;;;;20.80;10.90;;;;;;;-142.75;100.00;79134.06;5030046;28;20083;-67
2022/03/20 09:37:35;;;;;;;25.17;11.05;;;;;;;-142.75;100.00;79138.00;5009744;28;20030;-66
2022/03/20 09:40:00;;;;;;;20.67;10.80;;;;;;;-142.75;100.00;79141.94;5030009;28;20025;-67
2022/03/20 09:42:26;;;;;;;21.13;11.98;;;;;;;-142.75;100.00;79153.75;5030874;28;20218;-66
2022/03/20 09:44:53;;;;;;;23.23;11.15;;;;;;;-142.75;100.00;79167.56;5030259;28;20033;-66
2022/03/20 09:47:18;;;;;;;24.30;12.30;;;;;;;-142.75;100.00;79169.53;5030450;28;20045;-66
2022/03/20 09:49:47;;;;;;;24.33;12.30;;;;;;;-142.75;100.00;79167.56;5009925;28;20030;-67
2022/03/20 09:52:14;;;;;;;25.40;11.93;;;;;;;-142.75;100.00;79161.66;5028665;28;20461;-66
2022/03/20 09:54:39;;;;;;;21.40;11.90;;;;;;;-142.75;100.00;79187.25;5029860;28;20542;-67
2022/03/20 09:57:07;;;;;;;17.42;10.63;;;;;;;-142.75;100.00;79201.03;5029281;28;20019;-67
2022/03/20 09:59:36;;;;;;;21.37;11.07;;;;;;;-142.75;100.00;79204.97;5028592;28;20025;-70
2022/03/20 10:02:04;;;;;;;25.37;13.10;;;;;;;-142.75;100.00;79236.50;5029700;28;20029;-67
2022/03/20 10:04:31;;;;;;;23.40;12.53;;;;;;;-142.75;100.00;79236.50;5029731;28;20036;-67
2022/03/20 10:06:58;;;;;;;27.50;13.47;;;;;;;-142.75;100.00;79236.50;5030140;28;20059;-67
2022/03/20 10:09:23;;;;;;;25.33;13.43;;;;;;;-142.75;100.00;79254.22;5027140;28;20034;-66
2022/03/20 10:11:57;;;;;;;20.30;11.98;;;;;;;-142.75;100.00;79258.16;5011054;28;20037;-67
2022/03/20 10:14:29;;;;;;;24.77;13.63;;;;;;;-142.75;100.00;79260.13;5026185;28;20486;-66
2022/03/20 10:17:06;;;;;;;42.90;23.27;;;;;;;-142.75;100.00;79250.28;5029875;28;20017;-67
2022/03/20 10:19:32;;;;;;;106.90;42.93;;;;;;;-142.75;100.00;79254.22;5012096;28;20109;-67
2022/03/20 10:22:06;;;;;;;34.90;20.63;;;;;;;-142.75;100.00;79240.44;5029285;28;20029;-67
2022/03/20 10:24:34;;;;;;;33.47;19.07;;;;;;;-142.75;100.00;79264.06;5028654;28;20048;-67
2022/03/20 10:26:59;;;;;;;28.97;18.00;;;;;;;-142.75;100.00;79256.19;5029957;28;20499;-67
2022/03/20 10:29:25;;;;;;;25.83;13.67;;;;;;;-142.75;100.00;79224.69;5028132;28;20052;-67
2022/03/20 10:31:53;;;;;;;26.63;13.95;;;;;;;-142.75;100.00;79185.28;5028754;28;20037;-67
2022/03/20 10:34:20;;;;;;;30.67;19.57;;;;;;;-142.75;100.00;79130.13;5021923;28;20017;-67
2022/03/20 10:36:46;;;;;;;27.00;16.53;;;;;;;-142.75;100.00;79076.94;5029426;28;20086;-68
2022/03/20 10:39:19;;;;;;;29.40;13.75;;;;;;;-142.75;100.00;79055.28;5020553;28;20110;-66
2022/03/20 10:41:45;;;;;;;22.67;13.37;;;;;;;-142.75;100.00;79063.16;5014486;28;20033;-67
2022/03/20 10:44:13;;;;;;;23.97;13.97;;;;;;;-142.75;100.00;79047.41;5010177;28;20476;-67
2022/03/20 10:46:39;;;;;;;24.00;13.17;;;;;;;-142.75;100.00;79041.50;5025789;28;20495;-67
2022/03/20 10:49:06;;;;;;;25.47;13.73;;;;;;;-142.75;100.00;79047.41;5013977;28;20129;-68
2022/03/20 10:51:38;;;;;;;22.70;13.10;;;;;;;-142.75;100.00;79090.72;5027886;28;20441;-68
2022/03/20 10:54:15;;;;;;;21.67;12.37;;;;;;;-142.75;100.00;79096.66;5020324;28;20057;-67
2022/03/20 10:56:58;;;;;;;25.67;13.10;;;;;;;-142.75;100.00;79098.63;5019969;28;20025;-67
2022/03/20 10:59:25;;;;;;;24.90;13.97;;;;;;;-142.75;100.00;79086.78;5028989;28;20030;-66
2022/03/20 11:01:51;;;;;;;23.53;13.30;;;;;;;-142.75;100.00;79065.13;5029297;28;20028;-67
2022/03/20 11:04:19;;;;;;;24.03;14.00;;;;;;;-142.75;100.00;79045.44;5028961;28;20465;-66
2022/03/20 11:06:47;;;;;;;22.17;13.57;;;;;;;-142.75;100.00;79031.66;5028981;28;20029;-67
2022/03/20 11:09:13;;;;;;;27.17;14.67;;;;;;;-142.75;100.00;79023.75;5027579;28;20057;-67
2022/03/20 11:11:42;;;;;;;24.60;13.95;;;;;;;-142.75;100.00;79000.13;5028016;28;20060;-67
2022/03/20 11:14:09;;;;;;;24.77;14.87;;;;;;;-142.75;100.00;78996.19;5028799;28;20079;-67
2022/03/20 11:16:36;;;;;;;26.80;14.57;;;;;;;-142.75;100.00;78992.25;5009307;28;20026;-66
2022/03/20 11:19:05;;;;;;;27.60;15.50;;;;;;;-142.75;100.00;78978.47;5007455;28;20076;-67
2022/03/20 11:21:34;;;;;;;24.97;13.83;;;;;;;-142.75;100.00;78962.69;5027617;28;20021;-66
2022/03/20 11:24:01;;;;;;;26.17;14.80;;;;;;;-142.75;100.00;78941.03;5029099;28;20029;-66
2022/03/20 11:26:27;;;;;;;;;;;;;;;-142.75;100.00;78915.44;5030154;28;20761;-66
2022/03/20 11:28:59;;;;;;;25.67;13.57;;;;;;;-142.75;100.00;78913.47;5028008;28;19960;-68
2022/03/20 11:31:25;;;;;;;20.30;13.30;;;;;;;-142.75;100.00;78899.69;5019568;28;20484;-66